Time;durP1;ratioP1;P1;durP2;ratioP2;P2;SDS_P1;SDS_P2;PMS_P1;PMS_P2;Temp;Humidity;BMP_temperature;BMP_pressure;BME280_temperature;BME280_humidity;BME280_pressure;Samples;Min_cycle;Max_cycle;Signal;HPM_P1;HPM_P2
2022/05/28 00:00:26;;;;;;;;;;;;;;;26.57;51.72;98268.22;2083731;28;19936;-50
2022/05/28 00:01:27;;;;;;;;;;;;;;;26.57;51.91;98270.94;2086287;28;20469;-49
2022/05/28 00:02:30;;;;;;;;;;;;;;;26.56;51.72;98267.41;2083384;28;19943;-49
2022/05/28 00:03:32;;;;;;;;;;;;;;;26.56;51.71;98272.03;2081041;28;20325;-49
2022/05/28 00:04:32;;;;;;;;;;;;;;;26.56;51.47;98261.97;2084143;28;19929;-47
2022/05/28 00:05:34;;;;;;;;;;;;;;;26.58;51.70;98261.69;2080789;28;19956;-47
2022/05/28 00:06:35;;;;;;;;;;;;;;;26.57;51.70;98262.78;2081293;28;19932;-51
2022/05/28 00:07:37;;;;;;;;;;;;;;;26.57;52.29;98258.16;2083819;28;19929;-45
2022/05/28 00:08:37;;;;;;;;;;;;;;;26.57;52.08;98254.63;2087391;28;19968;-48
2022/05/28 00:09:39;;;;;;;;;;;;;;;26.59;51.49;98261.44;2080800;28;19929;-48
2022/05/28 00:10:40;;;;;;;;;;;;;;;26.57;51.20;98258.16;2082414;28;19929;-48
2022/05/28 00:11:42;;;;;;;;;;;;;;;26.57;50.93;98250.00;2082809;28;20290;-47
2022/05/28 00:12:43;;;;;;;;;;;;;;;26.55;50.58;98251.34;2079514;28;19928;-50
2022/05/28 00:13:45;;;;;;;;;;;;;;;26.55;51.07;98248.63;2069994;28;19929;-50
2022/05/28 00:14:45;;;;;;;;;;;;;;;26.54;50.14;98244.28;2078731;28;20024;-48
2022/05/28 00:15:47;;;;;;;;;;;;;;;26.54;50.32;98244.28;2082989;28;19940;-50
2022/05/28 00:16:47;;;;;;;;;;;;;;;26.52;49.56;98241.81;2080020;28;19933;-47
2022/05/28 00:17:50;;;;;;;;;;;;;;;26.52;49.85;98248.09;2081688;28;20401;-47
2022/05/28 00:18:51;;;;;;;;;;;;;;;26.52;50.86;98244.53;2079315;28;19928;-46
2022/05/28 00:19:54;;;;;;;;;;;;;;;26.51;49.58;98242.91;2076582;28;19933;-46
2022/05/28 00:20:54;;;;;;;;;;;;;;;26.50;50.14;98241.25;2080063;28;19956;-50
2022/05/28 00:21:56;;;;;;;;;;;;;;;26.50;50.27;98242.09;2082267;28;20388;-50
2022/05/28 00:22:57;;;;;;;;;;;;;;;26.49;51.30;98240.44;2083656;28;19925;-48
2022/05/28 00:23:59;;;;;;;;;;;;;;;26.50;51.46;98243.97;2085017;28;19982;-49
2022/05/28 00:24:59;;;;;;;;;;;;;;;26.48;51.83;98236.06;2086640;28;19983;-51
2022/05/28 00:26:01;;;;;;;;;;;;;;;26.50;51.02;98242.09;2085395;28;20508;-46
2022/05/28 00:27:03;;;;;;;;;;;;;;;26.51;51.53;98237.47;2083959;28;19952;-46
2022/05/28 00:28:04;;;;;;;;;;;;;;;26.52;51.91;98239.94;2084684;28;19951;-50
2022/05/28 00:29:06;;;;;;;;;;;;;;;26.54;52.07;98244.28;2084415;28;20027;-46
2022/05/28 00:30:08;;;;;;;;;;;;;;;26.56;51.41;98239.41;2081631;28;20899;-49
2022/05/28 00:31:10;;;;;;;;;;;;;;;26.53;51.46;98240.75;2087135;28;19928;-50
2022/05/28 00:32:10;;;;;;;;;;;;;;;26.51;51.22;98235.56;2080831;28;20559;-50
2022/05/28 00:33:13;;;;;;;;;;;;;;;26.51;51.57;98241.00;2080153;28;19940;-46
2022/05/28 00:34:14;;;;;;;;;;;;;;;26.52;51.22;98237.22;2080053;28;20016;-48
2022/05/28 00:35:16;;;;;;;;;;;;;;;26.52;50.98;98237.22;2084116;28;20382;-48
2022/05/28 00:36:17;;;;;;;;;;;;;;;26.52;51.23;98239.09;2086683;28;20020;-49
2022/05/28 00:37:18;;;;;;;;;;;;;;;26.52;50.85;98239.94;2083279;28;19929;-47
2022/05/28 00:38:19;;;;;;;;;;;;;;;26.49;50.96;98235.00;2081543;28;19933;-47
2022/05/28 00:39:21;;;;;;;;;;;;;;;26.48;51.15;98236.06;2084565;28;20574;-47
2022/05/28 00:40:22;;;;;;;;;;;;;;;26.48;51.17;98233.34;2084298;28;20035;-48
2022/05/28 00:41:24;;;;;;;;;;;;;;;26.49;50.76;98234.16;2083129;28;20047;-49
2022/05/28 00:42:25;;;;;;;;;;;;;;;26.48;50.50;98232.53;2084979;28;20318;-47
2022/05/28 00:43:27;;;;;;;;;;;;;;;26.49;51.16;98229.56;2085126;28;19955;-47
2022/05/28 00:44:29;;;;;;;;;;;;;;;26.50;51.18;98236.66;2079789;28;19932;-46
2022/05/28 00:45:30;;;;;;;;;;;;;;;26.47;50.71;98234.44;2085975;28;19979;-50
2022/05/28 00:46:32;;;;;;;;;;;;;;;26.46;50.90;98227.34;2082734;28;20703;-48
2022/05/28 00:47:33;;;;;;;;;;;;;;;26.47;50.83;98226.28;2083504;28;20387;-49
2022/05/28 00:48:40;;;;;;;;;;;;;;;26.48;50.72;98221.66;2079402;28;19943;-49
2022/05/28 00:49:41;;;;;;;;;;;;;;;26.47;50.42;98220.03;2080788;28;19931;-45
2022/05/28 00:50:43;;;;;;;;;;;;;;;26.47;50.86;98223.56;2082231;28;20923;-48
2022/05/28 00:51:50;;;;;;;;;;;;;;;26.46;50.95;98219.19;2082897;28;19937;-48
2022/05/28 00:52:52;;;;;;;;;;;;;;;26.45;51.28;98214.03;2079544;28;19935;-49
2022/05/28 00:53:54;;;;;;;;;;;;;;;26.45;51.51;98222.19;2088317;28;19929;-47
2022/05/28 00:54:56;;;;;;;;;;;;;;;26.46;52.04;98218.38;2081252;28;19932;-45
2022/05/28 00:55:56;;;;;;;;;;;;;;;26.46;52.70;98213.75;2084434;28;20363;-49
2022/05/28 00:56:59;;;;;;;;;;;;;;;26.49;52.42;98212.41;2085458;28;20060;-48
2022/05/28 00:57:59;;;;;;;;;;;;;;;26.50;53.02;98217.63;2084499;28;19964;-50
2022/05/28 00:59:01;;;;;;;;;;;;;;;26.50;52.53;98206.72;2081020;28;20736;-49
2022/05/28 01:00:04;;;;;;;;;;;;;;;26.51;52.43;98216.53;2083458;28;19956;-48
2022/05/28 01:01:06;;;;;;;;;;;;;;;26.51;52.83;98208.34;2084733;28;19963;-49
2022/05/28 01:02:16;;;;;;;;;;;;;;;26.49;52.80;98207.81;2083179;28;19962;-46
2022/05/28 01:03:19;;;;;;;;;;;;;;;26.48;52.99;98211.59;2086196;28;19935;-49
2022/05/28 01:04:27;;;;;;;;;;;;;;;26.50;53.15;98209.47;2087221;28;19925;-50
2022/05/28 01:05:32;;;;;;;;;;;;;;;26.51;53.12;98202.13;2087203;28;20978;-51
2022/05/28 01:06:37;;;;;;;;;;;;;;;26.49;52.91;98201.53;2084597;28;21368;-46
2022/05/28 01:07:40;;;;;;;;;;;;;;;26.51;53.17;98202.13;2081820;28;19929;-49
2022/05/28 01:08:44;;;;;;;;;;;;;;;26.47;53.36;98199.09;2087115;28;19925;-47
2022/05/28 01:09:49;;;;;;;;;;;;;;;26.49;53.44;98194.19;2086045;28;19968;-46
2022/05/28 01:10:54;;;;;;;;;;;;;;;26.47;53.46;98185.47;2085517;28;19935;-47
2022/05/28 01:12:02;;;;;;;;;;;;;;;26.48;53.38;98194.47;2082277;28;19974;-51
2022/05/28 01:13:07;;;;;;;;;;;;;;;26.48;53.08;98183.56;2082103;28;19932;-50
2022/05/28 01:14:11;;;;;;;;;;;;;;;26.49;53.06;98191.47;2083516;28;20030;-48
2022/05/28 01:15:15;;;;;;;;;;;;;;;26.49;53.46;98180.59;2079771;28;19924;-52
2022/05/28 01:16:21;;;;;;;;;;;;;;;26.48;53.41;98186.28;2087613;28;19967;-50
2022/05/28 01:17:26;;;;;;;;;;;;;;;26.49;53.25;98183.31;2081543;28;20090;-49
2022/05/28 01:18:30;;;;;;;;;;;;;;;26.49;53.12;98179.75;2082400;28;19974;-46
2022/05/28 01:19:38;;;;;;;;;;;;;;;26.48;52.70;98178.13;2081408;28;20182;-48
2022/05/28 01:20:42;;;;;;;;;;;;;;;26.50;52.23;98175.97;2081446;28;19932;-46
2022/05/28 01:21:58;;;;;;;;;;;;;;;26.49;51.96;98174.31;2080796;28;19929;-46
2022/05/28 01:23:12;;;;;;;;;;;;;;;26.49;51.89;98174.31;2080820;28;21025;-50
2022/05/28 01:24:17;;;;;;;;;;;;;;;26.48;52.27;98176.22;2083240;28;20534;-47
2022/05/28 01:25:23;;;;;;;;;;;;;;;26.50;52.33;98173.25;2084730;28;20644;-50
2022/05/28 01:26:29;;;;;;;;;;;;;;;26.49;52.07;98169.72;2081866;28;19960;-49
2022/05/28 01:27:35;;;;;;;;;;;;;;;26.50;52.23;98173.25;2082926;28;19932;-48
2022/05/28 01:28:37;;;;;;;;;;;;;;;26.48;51.96;98173.50;2081895;28;20027;-50
2022/05/28 01:29:46;;;;;;;;;;;;;;;26.50;52.59;98165.09;2083508;28;19946;-46
2022/05/28 01:30:47;;;;;;;;;;;;;;;26.50;52.01;98168.66;2083425;28;19933;-47
2022/05/28 01:31:49;;;;;;;;;;;;;;;26.51;52.47;98166.75;2084740;28;20419;-46
2022/05/28 01:32:51;;;;;;;;;;;;;;;26.50;52.48;98168.66;2081015;28;19928;-51
2022/05/28 01:33:55;;;;;;;;;;;;;;;26.52;52.99;98168.38;2083596;28;19943;-48
2022/05/28 01:34:58;;;;;;;;;;;;;;;26.50;53.11;98155.06;2080905;28;19928;-48
2022/05/28 01:36:00;;;;;;;;;;;;;;;26.51;53.25;98159.41;2079763;28;19928;-52
2022/05/28 01:37:01;;;;;;;;;;;;;;;26.50;52.81;98159.66;2083107;28;19936;-47
2022/05/28 01:38:05;;;;;;;;;;;;;;;26.46;52.61;98156.63;2081552;28;20930;-48
2022/05/28 01:39:06;;;;;;;;;;;;;;;26.47;52.84;98162.91;2078493;28;19932;-46
2022/05/28 01:40:09;;;;;;;;;;;;;;;26.48;52.83;98153.66;2083900;28;19925;-47
2022/05/28 01:41:10;;;;;;;;;;;;;;;26.50;52.94;98149.63;2081943;28;20828;-49
2022/05/28 01:42:12;;;;;;;;;;;;;;;26.49;52.86;98150.69;2084277;28;20444;-46
2022/05/28 01:43:16;;;;;;;;;;;;;;;26.49;52.37;98153.41;2085552;28;19929;-49
2022/05/28 01:44:18;;;;;;;;;;;;;;;26.47;52.37;98152.84;2083546;28;20055;-50
2022/05/28 01:45:21;;;;;;;;;;;;;;;26.49;52.69;98147.97;2085943;28;19936;-47
2022/05/28 01:46:27;;;;;;;;;;;;;;;26.49;52.42;98147.97;2079703;28;19925;-49
2022/05/28 01:47:29;;;;;;;;;;;;;;;26.48;52.27;98150.94;2086705;28;19964;-48
2022/05/28 01:48:31;;;;;;;;;;;;;;;26.49;52.68;98147.13;2084522;28;20851;-50
2022/05/28 01:49:32;;;;;;;;;;;;;;;26.48;52.59;98146.31;2083714;28;19933;-47
2022/05/28 01:50:35;;;;;;;;;;;;;;;26.49;53.21;98144.41;2080526;28;19933;-47
2022/05/28 01:51:37;;;;;;;;;;;;;;;26.47;53.19;98147.41;2083856;28;19933;-48
2022/05/28 01:52:40;;;;;;;;;;;;;;;26.48;52.67;98143.59;2080655;28;20321;-46
2022/05/28 01:55:04;;;;;;;;;;;;;;;26.50;52.70;98146.91;2069096;28;21896;-51
2022/05/28 01:56:05;;;;;;;;;;;;;;;26.52;52.81;98142.03;2079483;28;20299;-47
2022/05/28 01:57:07;;;;;;;;;;;;;;;26.50;52.78;98138.75;2081062;28;19928;-46
2022/05/28 01:58:08;;;;;;;;;;;;;;;26.48;52.70;98134.63;2080964;28;19932;-50
2022/05/28 01:59:11;;;;;;;;;;;;;;;26.49;53.06;98138.97;2082314;28;19932;-51
2022/05/28 02:00:12;;;;;;;;;;;;;;;26.48;53.15;98137.34;2079470;28;19928;-50
2022/05/28 02:01:14;;;;;;;;;;;;;;;26.47;53.26;98133.00;2078578;28;19940;-47
2022/05/28 02:02:15;;;;;;;;;;;;;;;26.48;53.19;98130.00;2083438;28;19940;-45
2022/05/28 02:03:17;;;;;;;;;;;;;;;26.47;53.21;98130.28;2083097;28;20968;-47
2022/05/28 02:04:18;;;;;;;;;;;;;;;26.48;53.51;98123.75;2086631;28;19925;-48
2022/05/28 02:05:20;;;;;;;;;;;;;;;26.48;52.95;98121.84;2087734;28;19979;-47
2022/05/28 02:06:20;;;;;;;;;;;;;;;26.46;52.92;98126.72;2087573;28;20440;-48
2022/05/28 02:07:22;;;;;;;;;;;;;;;26.46;53.56;98121.28;2081670;28;20020;-47
2022/05/28 02:08:23;;;;;;;;;;;;;;;26.47;53.49;98117.50;2083142;28;19929;-48
2022/05/28 02:09:27;;;;;;;;;;;;;;;26.48;53.40;98119.13;2082500;28;19930;-48
2022/05/28 02:10:27;;;;;;;;;;;;;;;26.48;53.00;98118.31;2070865;28;19964;-50
2022/05/28 02:11:32;;;;;;;;;;;;;;;26.47;53.45;98120.22;2079550;28;21378;-47
2022/05/28 02:12:36;;;;;;;;;;;;;;;26.46;53.58;98118.56;2083659;28;19924;-52
2022/05/28 02:13:45;;;;;;;;;;;;;;;26.46;53.61;98120.47;2082694;28;19939;-51
2022/05/28 02:14:51;;;;;;;;;;;;;;;26.46;53.64;98115.84;2081852;28;19932;-50
2022/05/28 02:15:56;;;;;;;;;;;;;;;26.47;53.63;98113.97;2083700;28;19940;-45
2022/05/28 02:17:03;;;;;;;;;;;;;;;26.48;53.52;98112.88;2077100;28;19924;-48
2022/05/28 02:18:11;;;;;;;;;;;;;;;26.47;53.42;98108.53;2082432;28;20527;-47
2022/05/28 02:19:16;;;;;;;;;;;;;;;26.46;53.69;98109.59;2078769;28;19968;-46
2022/05/28 02:20:22;;;;;;;;;;;;;;;26.47;53.29;98105.81;2082198;28;20012;-49
2022/05/28 02:21:26;;;;;;;;;;;;;;;26.46;53.30;98107.69;2079512;28;19974;-48
2022/05/28 02:22:34;;;;;;;;;;;;;;;26.47;53.51;98112.06;2084809;28;20437;-47
2022/05/28 02:23:39;;;;;;;;;;;;;;;26.48;53.51;98107.44;2082295;28;19936;-49
2022/05/28 02:24:43;;;;;;;;;;;;;;;26.48;53.40;98112.88;2084518;28;19975;-48
2022/05/28 02:25:45;;;;;;;;;;;;;;;26.46;53.41;98110.41;2083459;28;20528;-46
2022/05/28 02:26:49;;;;;;;;;;;;;;;26.45;53.59;98106.06;2080548;28;20469;-50
2022/05/28 02:27:50;;;;;;;;;;;;;;;26.47;53.38;98105.81;2084369;28;20484;-51
2022/05/28 02:28:53;;;;;;;;;;;;;;;26.49;53.39;98106.34;2081513;28;19929;-49
2022/05/28 02:29:55;;;;;;;;;;;;;;;26.48;53.88;98102.00;2084277;28;19929;-50
2022/05/28 02:31:02;;;;;;;;;;;;;;;26.50;53.65;98100.69;2085281;28;19935;-49
2022/05/28 02:32:11;;;;;;;;;;;;;;;26.47;53.64;98103.91;2086880;28;19929;-45
2022/05/28 02:33:12;;;;;;;;;;;;;;;26.47;53.94;98106.63;2083166;28;19924;-51
2022/05/28 02:34:15;;;;;;;;;;;;;;;26.47;53.62;98101.19;2084940;28;19952;-49
2022/05/28 02:35:15;;;;;;;;;;;;;;;26.47;53.91;98108.53;2083552;28;19933;-46
2022/05/28 02:36:18;;;;;;;;;;;;;;;26.47;53.88;98106.63;2082861;28;19928;-46
2022/05/28 02:37:20;;;;;;;;;;;;;;;26.47;53.94;98105.81;2085291;28;20425;-46
2022/05/28 02:38:22;;;;;;;;;;;;;;;26.47;53.88;98103.91;2082297;28;19928;-53
2022/05/28 02:39:22;;;;;;;;;;;;;;;26.46;53.79;98099.53;2080393;28;19925;-48
2022/05/28 02:40:24;;;;;;;;;;;;;;;26.46;53.86;98099.53;2080003;28;19929;-46
2022/05/28 02:41:25;;;;;;;;;;;;;;;26.46;53.56;98094.09;2075483;28;19930;-49
2022/05/28 02:42:26;;;;;;;;;;;;;;;26.47;53.96;98109.34;2082046;28;19939;-49
2022/05/28 02:43:29;;;;;;;;;;;;;;;26.47;53.93;98103.91;2079043;28;19943;-47
2022/05/28 02:44:30;;;;;;;;;;;;;;;26.46;53.81;98104.16;2077686;28;19932;-50
2022/05/28 02:45:32;;;;;;;;;;;;;;;26.46;53.76;98098.72;2080684;28;19928;-46
2022/05/28 02:46:35;;;;;;;;;;;;;;;26.45;53.98;98102.53;2080090;28;19985;-53
2022/05/28 02:47:35;;;;;;;;;;;;;;;26.44;53.67;98098.16;2083590;28;19932;-50
2022/05/28 02:48:38;;;;;;;;;;;;;;;26.45;53.84;98097.09;2082126;28;19973;-46
2022/05/28 02:49:39;;;;;;;;;;;;;;;26.45;53.55;98094.38;2077282;28;19937;-48
2022/05/28 02:50:40;;;;;;;;;;;;;;;26.45;54.00;98097.91;2079213;28;19928;-50
2022/05/28 02:51:41;;;;;;;;;;;;;;;26.44;53.91;98095.44;2085001;28;20355;-49
2022/05/28 02:52:43;;;;;;;;;;;;;;;26.44;54.12;98096.28;2079001;28;19936;-46
2022/05/28 02:53:44;;;;;;;;;;;;;;;26.45;54.12;98094.38;2084797;28;19971;-48
2022/05/28 02:54:45;;;;;;;;;;;;;;;26.45;53.60;98095.19;2082199;28;20402;-48
2022/05/28 02:55:46;;;;;;;;;;;;;;;26.44;53.97;98096.28;2083184;28;19940;-50
2022/05/28 02:56:47;;;;;;;;;;;;;;;26.42;54.04;98098.44;2081397;28;19972;-47
2022/05/28 02:57:49;;;;;;;;;;;;;;;26.44;54.12;98096.28;2080067;28;19932;-48
2022/05/28 02:58:50;;;;;;;;;;;;;;;26.45;53.81;98091.66;2083948;28;20043;-52
2022/05/28 02:59:51;;;;;;;;;;;;;;;26.44;53.90;98093.56;2077011;28;20473;-48
2022/05/28 03:00:53;;;;;;;;;;;;;;;26.45;54.12;98083.50;2084139;28;19936;-51
2022/05/28 03:01:55;;;;;;;;;;;;;;;26.45;53.73;98086.22;2082192;28;19935;-46
2022/05/28 03:02:55;;;;;;;;;;;;;;;26.42;52.95;98086.75;2081263;28;19928;-46
2022/05/28 03:03:57;;;;;;;;;;;;;;;26.43;52.88;98083.75;2083377;28;19939;-47
2022/05/28 03:04:58;;;;;;;;;;;;;;;26.43;52.78;98082.94;2083001;28;19928;-47
2022/05/28 03:06:00;;;;;;;;;;;;;;;26.41;53.33;98083.22;2083373;28;19968;-49
2022/05/28 03:07:00;;;;;;;;;;;;;;;26.42;53.10;98079.41;2080217;28;19924;-49
2022/05/28 03:08:02;;;;;;;;;;;;;;;26.41;52.97;98080.50;2080910;28;20612;-47
2022/05/28 03:09:03;;;;;;;;;;;;;;;26.41;53.42;98069.63;2082223;28;20093;-52
2022/05/28 03:10:05;;;;;;;;;;;;;;;26.40;53.50;98073.41;2083538;28;19972;-49
2022/05/28 03:11:05;;;;;;;;;;;;;;;26.41;52.88;98079.66;2083520;28;19936;-45
2022/05/28 03:12:07;;;;;;;;;;;;;;;26.38;53.40;98081.03;2085938;28;19924;-50
2022/05/28 03:13:08;;;;;;;;;;;;;;;26.38;53.48;98075.56;2083293;28;19929;-49
2022/05/28 03:14:10;;;;;;;;;;;;;;;26.38;53.48;98078.28;2082704;28;19944;-51
2022/05/28 03:15:10;;;;;;;;;;;;;;;26.38;53.95;98070.13;2082094;28;20642;-48
2022/05/28 03:16:13;;;;;;;;;;;;;;;26.39;53.93;98070.97;2084153;28;19928;-51
2022/05/28 03:17:14;;;;;;;;;;;;;;;26.41;54.25;98075.06;2081026;28;20000;-48
2022/05/28 03:18:15;;;;;;;;;;;;;;;26.40;54.22;98067.97;2078791;28;19935;-49
2022/05/28 03:19:16;;;;;;;;;;;;;;;26.42;54.27;98062.28;2082492;28;19939;-47
2022/05/28 03:20:18;;;;;;;;;;;;;;;26.41;54.12;98069.63;2083876;28;19932;-46
2022/05/28 03:21:18;;;;;;;;;;;;;;;26.41;54.31;98069.63;2083239;28;19933;-50
2022/05/28 03:22:20;;;;;;;;;;;;;;;26.40;54.23;98065.25;2081784;28;19932;-49
2022/05/28 03:23:21;;;;;;;;;;;;;;;26.41;54.25;98064.19;2081105;28;19932;-51
2022/05/28 03:24:22;;;;;;;;;;;;;;;26.41;54.24;98066.06;2085248;28;19979;-50
2022/05/28 03:25:23;;;;;;;;;;;;;;;26.41;54.30;98064.19;2076701;28;19932;-47
2022/05/28 03:26:25;;;;;;;;;;;;;;;26.43;54.15;98061.19;2083715;28;19967;-49
2022/05/28 03:27:26;;;;;;;;;;;;;;;26.41;54.29;98064.19;2080225;28;21071;-47
2022/05/28 03:28:28;;;;;;;;;;;;;;;26.42;53.94;98054.13;2080693;28;19933;-51
2022/05/28 03:29:28;;;;;;;;;;;;;;;26.40;53.99;98059.00;2082547;28;20468;-50
2022/05/28 03:30:30;;;;;;;;;;;;;;;26.42;53.83;98060.38;2082437;28;19935;-48
2022/05/28 03:31:32;;;;;;;;;;;;;;;26.43;54.16;98062.00;2081286;28;19940;-52
2022/05/28 03:32:33;;;;;;;;;;;;;;;26.41;53.83;98055.19;2080037;28;20929;-47
2022/05/28 03:33:34;;;;;;;;;;;;;;;26.43;54.23;98055.75;2083907;28;19951;-48
2022/05/28 03:34:36;;;;;;;;;;;;;;;26.43;53.69;98056.56;2083230;28;21688;-50
2022/05/28 03:35:37;;;;;;;;;;;;;;;26.43;53.91;98062.00;2080569;28;20532;-51
2022/05/28 03:36:39;;;;;;;;;;;;;;;26.41;53.79;98058.75;2084866;28;19929;-51
2022/05/28 03:37:40;;;;;;;;;;;;;;;26.42;53.83;98049.50;2082057;28;19936;-50
2022/05/28 03:38:41;;;;;;;;;;;;;;;26.43;53.43;98048.41;2086772;28;19925;-50
2022/05/28 03:39:42;;;;;;;;;;;;;;;26.43;53.61;98053.84;2079249;28;19963;-50
2022/05/28 03:40:43;;;;;;;;;;;;;;;26.44;53.45;98052.78;2083229;28;19929;-53
2022/05/28 03:41:44;;;;;;;;;;;;;;;26.44;53.12;98050.06;2082878;28;19929;-51
2022/05/28 03:42:45;;;;;;;;;;;;;;;26.43;53.24;98044.88;2079682;28;20016;-49
2022/05/28 03:43:46;;;;;;;;;;;;;;;26.42;52.64;98049.50;2086009;28;19967;-52
2022/05/28 03:44:48;;;;;;;;;;;;;;;26.44;53.15;98047.34;2067229;28;19932;-49
2022/05/28 03:45:48;;;;;;;;;;;;;;;26.43;53.06;98048.41;2084052;28;19936;-48
2022/05/28 03:46:51;;;;;;;;;;;;;;;26.43;53.24;98042.97;2084395;28;20035;-48
2022/05/28 03:47:52;;;;;;;;;;;;;;;26.43;53.13;98047.59;2082955;28;19940;-51
2022/05/28 03:48:55;;;;;;;;;;;;;;;26.44;52.94;98043.78;2084609;28;19929;-50
2022/05/28 03:49:56;;;;;;;;;;;;;;;26.43;52.87;98044.88;2083929;28;19928;-48
2022/05/28 03:50:57;;;;;;;;;;;;;;;26.44;52.41;98041.91;2078842;28;21198;-50
2022/05/28 03:51:58;;;;;;;;;;;;;;;26.46;51.92;98038.91;2079921;28;20417;-46
2022/05/28 03:53:00;;;;;;;;;;;;;;;26.43;52.56;98039.44;2077368;28;19928;-45
2022/05/28 03:54:02;;;;;;;;;;;;;;;26.43;52.19;98045.69;2083369;28;19928;-49
2022/05/28 03:55:03;;;;;;;;;;;;;;;26.43;52.24;98040.25;2084496;28;19925;-47
2022/05/28 03:56:05;;;;;;;;;;;;;;;26.43;51.90;98039.44;2086987;28;19974;-46
2022/05/28 03:57:06;;;;;;;;;;;;;;;26.43;52.57;98036.72;2084111;28;20341;-51
2022/05/28 03:58:08;;;;;;;;;;;;;;;26.42;52.71;98046.78;2079269;28;23515;-48
2022/05/28 03:59:10;;;;;;;;;;;;;;;26.42;52.80;98046.78;2082092;28;20042;-47
2022/05/28 04:00:12;;;;;;;;;;;;;;;26.42;52.93;98045.97;2080117;28;19928;-49
2022/05/28 04:01:14;;;;;;;;;;;;;;;26.42;53.46;98037.81;2085629;28;19924;-47
2022/05/28 04:02:16;;;;;;;;;;;;;;;26.41;53.82;98047.03;2082849;28;19928;-52
2022/05/28 04:03:17;;;;;;;;;;;;;;;26.41;53.53;98045.16;2085672;28;19967;-48
2022/05/28 04:04:18;;;;;;;;;;;;;;;26.40;53.48;98046.22;2083923;28;19932;-51
2022/05/28 04:05:19;;;;;;;;;;;;;;;26.40;53.91;98042.69;2084561;28;19933;-48
2022/05/28 04:06:20;;;;;;;;;;;;;;;26.40;54.09;98045.41;2082767;28;20994;-46
2022/05/28 04:07:22;;;;;;;;;;;;;;;26.40;53.66;98046.22;2081667;28;19928;-52
2022/05/28 04:08:23;;;;;;;;;;;;;;;26.40;54.09;98046.22;2085867;28;19972;-50
2022/05/28 04:09:25;;;;;;;;;;;;;;;26.40;53.98;98046.22;2086048;28;19928;-50
2022/05/28 04:10:25;;;;;;;;;;;;;;;26.40;53.96;98043.50;2087267;28;19933;-48
2022/05/28 04:11:27;;;;;;;;;;;;;;;26.41;53.93;98045.16;2081365;28;19979;-47
2022/05/28 04:12:27;;;;;;;;;;;;;;;26.40;54.08;98043.50;2083861;28;20626;-48
2022/05/28 04:13:29;;;;;;;;;;;;;;;26.39;53.99;98050.03;2079228;28;19925;-49
2022/05/28 04:14:29;;;;;;;;;;;;;;;26.37;54.14;98046.78;2084240;28;20799;-48
2022/05/28 04:15:32;;;;;;;;;;;;;;;26.39;54.17;98044.59;2077298;28;19931;-47
2022/05/28 04:16:33;;;;;;;;;;;;;;;26.39;54.17;98044.59;2085357;28;19997;-48
2022/05/28 04:17:36;;;;;;;;;;;;;;;26.38;54.11;98042.94;2080897;28;19936;-48
2022/05/28 04:18:37;;;;;;;;;;;;;;;26.38;54.10;98048.38;2087523;28;19932;-52
2022/05/28 04:19:38;;;;;;;;;;;;;;;26.38;54.17;98044.84;2085681;28;20297;-49
2022/05/28 04:20:40;;;;;;;;;;;;;;;26.40;53.98;98040.78;2085131;28;19944;-49
2022/05/28 04:21:41;;;;;;;;;;;;;;;26.38;54.23;98034.78;2085702;28;19943;-48
2022/05/28 04:22:42;;;;;;;;;;;;;;;26.38;53.78;98034.78;2083175;28;20397;-51
2022/05/28 04:23:43;;;;;;;;;;;;;;;26.38;53.59;98036.69;2082015;28;19940;-52
2022/05/28 04:24:44;;;;;;;;;;;;;;;26.36;54.19;98031.56;2082875;28;19924;-49
2022/05/28 04:25:45;;;;;;;;;;;;;;;26.37;53.83;98035.88;2081826;28;19972;-51
2022/05/28 04:26:46;;;;;;;;;;;;;;;26.38;53.83;98037.50;2085626;28;19928;-50
2022/05/28 04:27:47;;;;;;;;;;;;;;;26.38;53.71;98039.41;2088428;28;20335;-49
2022/05/28 04:28:48;;;;;;;;;;;;;;;26.39;54.22;98032.91;2083089;28;19939;-49
2022/05/28 04:29:49;;;;;;;;;;;;;;;26.38;53.76;98033.97;2089644;28;19929;-47
2022/05/28 04:30:51;;;;;;;;;;;;;;;26.37;53.88;98035.09;2083593;28;20370;-48
2022/05/28 04:31:51;;;;;;;;;;;;;;;26.36;53.88;98039.72;2081525;28;21887;-50
2022/05/28 04:32:54;;;;;;;;;;;;;;;26.38;53.85;98039.41;2082062;28;19940;-52
2022/05/28 04:33:55;;;;;;;;;;;;;;;26.39;53.77;98043.78;2082391;28;19939;-45
2022/05/28 04:34:57;;;;;;;;;;;;;;;26.39;54.00;98041.88;2086025;28;19925;-50
2022/05/28 04:35:57;;;;;;;;;;;;;;;26.38;54.16;98042.94;2087463;28;20020;-49
2022/05/28 04:36:59;;;;;;;;;;;;;;;26.38;54.23;98039.41;2083236;28;19936;-45
2022/05/28 04:38:00;;;;;;;;;;;;;;;26.39;54.26;98032.91;2084979;28;19924;-50
2022/05/28 04:39:01;;;;;;;;;;;;;;;26.38;53.89;98037.50;2079043;28;19982;-50
2022/05/28 04:40:03;;;;;;;;;;;;;;;26.39;54.22;98043.78;2081987;28;19932;-47
2022/05/28 04:41:03;;;;;;;;;;;;;;;26.39;53.91;98035.63;2081458;28;19935;-47
2022/05/28 04:42:05;;;;;;;;;;;;;;;26.38;54.15;98029.34;2083354;28;19929;-47
2022/05/28 04:43:06;;;;;;;;;;;;;;;26.37;53.89;98035.88;2083853;28;19925;-51
2022/05/28 04:44:07;;;;;;;;;;;;;;;26.39;54.05;98039.16;2084363;28;19978;-49
2022/05/28 04:45:08;;;;;;;;;;;;;;;26.38;54.27;98033.97;2084249;28;20294;-49
2022/05/28 04:46:10;;;;;;;;;;;;;;;26.38;53.96;98034.78;2082530;28;19931;-47
2022/05/28 04:47:11;;;;;;;;;;;;;;;26.39;54.16;98027.47;2086005;28;19936;-49
2022/05/28 04:48:14;;;;;;;;;;;;;;;26.38;54.19;98031.25;2087415;28;20345;-48
2022/05/28 04:49:15;;;;;;;;;;;;;;;26.39;53.86;98024.75;2082753;28;19935;-49
2022/05/28 04:50:16;;;;;;;;;;;;;;;26.38;54.20;98034.78;2085302;28;19936;-45
2022/05/28 04:51:17;;;;;;;;;;;;;;;26.38;53.80;98034.78;2083412;28;19928;-48
2022/05/28 04:52:18;;;;;;;;;;;;;;;26.36;54.18;98028.84;2084245;28;19960;-50
2022/05/28 04:53:19;;;;;;;;;;;;;;;26.36;54.00;98028.03;2084242;28;20002;-46
2022/05/28 04:54:20;;;;;;;;;;;;;;;26.32;54.12;98022.28;2080645;28;19971;-48
2022/05/28 04:55:22;;;;;;;;;;;;;;;26.31;54.14;98020.66;2082693;28;19924;-50
2022/05/28 04:56:22;;;;;;;;;;;;;;;26.29;54.24;98020.91;2083942;28;19936;-51
2022/05/28 04:57:24;;;;;;;;;;;;;;;26.30;54.58;98019.03;2083611;28;20578;-50
2022/05/28 04:58:27;;;;;;;;;;;;;;;26.31;54.63;98020.66;2082510;28;20096;-47
2022/05/28 04:59:29;;;;;;;;;;;;;;;26.33;54.49;98026.66;2079133;28;19928;-49
2022/05/28 05:00:29;;;;;;;;;;;;;;;26.31;54.51;98026.09;2081949;28;19972;-49
2022/05/28 05:01:31;;;;;;;;;;;;;;;26.33;54.19;98018.50;2076512;28;19932;-49
2022/05/28 05:02:32;;;;;;;;;;;;;;;26.30;54.22;98022.56;2081485;28;22812;-48
2022/05/28 05:03:34;;;;;;;;;;;;;;;26.32;54.29;98018.75;2086192;28;19929;-46
2022/05/28 05:04:35;;;;;;;;;;;;;;;26.33;54.23;98018.50;2087913;28;19929;-48
2022/05/28 05:05:37;;;;;;;;;;;;;;;26.33;54.21;98026.66;2084794;28;19928;-47
2022/05/28 05:06:37;;;;;;;;;;;;;;;26.33;54.57;98018.50;2083253;28;19931;-49
2022/05/28 05:07:39;;;;;;;;;;;;;;;26.34;54.13;98017.41;2083230;28;19939;-48
2022/05/28 05:08:40;;;;;;;;;;;;;;;26.34;54.13;98014.69;2084711;28;19993;-50
2022/05/28 05:09:41;;;;;;;;;;;;;;;26.35;54.19;98015.50;2080593;28;19929;-49
2022/05/28 05:10:44;;;;;;;;;;;;;;;26.32;54.13;98011.41;2084464;28;19929;-51
2022/05/28 05:11:46;;;;;;;;;;;;;;;26.35;54.05;98007.34;2078505;28;20027;-49
2022/05/28 05:12:46;;;;;;;;;;;;;;;26.35;54.19;98005.44;2083733;28;19939;-49
2022/05/28 05:13:48;;;;;;;;;;;;;;;26.36;54.08;98009.81;2083426;28;20017;-48
2022/05/28 05:14:48;;;;;;;;;;;;;;;26.35;54.28;98012.78;2085377;28;20002;-51
2022/05/28 05:15:50;;;;;;;;;;;;;;;26.32;54.22;98005.97;2086632;28;20286;-48
2022/05/28 05:16:51;;;;;;;;;;;;;;;26.31;53.92;97998.91;2087036;28;20402;-50
2022/05/28 05:17:52;;;;;;;;;;;;;;;26.33;54.20;98006.78;2081389;28;19938;-51
2022/05/28 05:18:54;;;;;;;;;;;;;;;26.34;53.97;98008.44;2083186;28;19933;-49
2022/05/28 05:19:56;;;;;;;;;;;;;;;26.33;53.96;98004.91;2081867;28;19960;-51
2022/05/28 05:20:56;;;;;;;;;;;;;;;26.33;54.24;97998.63;2081208;28;19978;-48
2022/05/28 05:21:58;;;;;;;;;;;;;;;26.33;54.11;98002.19;2086544;28;20981;-47
2022/05/28 05:22:59;;;;;;;;;;;;;;;26.32;54.33;97995.09;2085511;28;19928;-50
2022/05/28 05:24:00;;;;;;;;;;;;;;;26.31;54.21;98004.34;2082603;28;20031;-47
2022/05/28 05:25:01;;;;;;;;;;;;;;;26.31;54.44;98001.63;2086014;28;20446;-46